sensor_id;sensor_type;location;lat;lon;timestamp;temperature;humidity
72380;SHT30;60354;47.798;12.472;2022-08-02T00:01:50;20.57;68.05
72380;SHT30;60354;47.798;12.472;2022-08-02T00:04:15;20.61;68.11
72380;SHT30;60354;47.798;12.472;2022-08-02T00:06:41;20.57;68.56
72380;SHT30;60354;47.798;12.472;2022-08-02T00:09:07;20.68;68.62
72380;SHT30;60354;47.798;12.472;2022-08-02T00:11:33;20.78;68.37
72380;SHT30;60354;47.798;12.472;2022-08-02T00:13:58;20.88;68.19
72380;SHT30;60354;47.798;12.472;2022-08-02T00:16:24;20.96;67.73
72380;SHT30;60354;47.798;12.472;2022-08-02T00:18:49;20.98;67.46
72380;SHT30;60354;47.798;12.472;2022-08-02T00:21:15;21.08;67.13
72380;SHT30;60354;47.798;12.472;2022-08-02T00:23:41;21.08;67.43
72380;SHT30;60354;47.798;12.472;2022-08-02T00:26:06;21.02;67.42
72380;SHT30;60354;47.798;12.472;2022-08-02T00:28:32;20.91;68.06
72380;SHT30;60354;47.798;12.472;2022-08-02T00:30:57;20.84;68.18
72380;SHT30;60354;47.798;12.472;2022-08-02T00:33:24;20.87;68.15
72380;SHT30;60354;47.798;12.472;2022-08-02T00:35:50;20.85;69.08
72380;SHT30;60354;47.798;12.472;2022-08-02T00:38:15;20.89;68.57
72380;SHT30;60354;47.798;12.472;2022-08-02T00:40:46;20.81;68.68
72380;SHT30;60354;47.798;12.472;2022-08-02T00:43:12;20.84;68.39
72380;SHT30;60354;47.798;12.472;2022-08-02T00:45:39;20.67;68.59
72380;SHT30;60354;47.798;12.472;2022-08-02T00:48:06;20.77;68.62
72380;SHT30;60354;47.798;12.472;2022-08-02T00:50:33;20.78;68.61
72380;SHT30;60354;47.798;12.472;2022-08-02T00:52:59;20.74;68.58
72380;SHT30;60354;47.798;12.472;2022-08-02T00:55:25;20.79;68.66
72380;SHT30;60354;47.798;12.472;2022-08-02T00:57:51;20.75;68.62
72380;SHT30;60354;47.798;12.472;2022-08-02T01:00:17;20.72;68.84
72380;SHT30;60354;47.798;12.472;2022-08-02T01:02:42;20.77;68.81
72380;SHT30;60354;47.798;12.472;2022-08-02T01:05:08;20.81;68.49
72380;SHT30;60354;47.798;12.472;2022-08-02T01:07:34;20.75;68.76
72380;SHT30;60354;47.798;12.472;2022-08-02T01:09:59;20.65;69.34
72380;SHT30;60354;47.798;12.472;2022-08-02T01:12:26;20.59;69.46
72380;SHT30;60354;47.798;12.472;2022-08-02T01:14:54;20.65;69.21
72380;SHT30;60354;47.798;12.472;2022-08-02T01:28:58;20.51;69.83
72380;SHT30;60354;47.798;12.472;2022-08-02T01:34:01;20.59;69.51
72380;SHT30;60354;47.798;12.472;2022-08-02T01:36:33;20.67;69.61
72380;SHT30;60354;47.798;12.472;2022-08-02T01:39:00;20.57;70.11
72380;SHT30;60354;47.798;12.472;2022-08-02T01:41:29;20.44;70.59
72380;SHT30;60354;47.798;12.472;2022-08-02T01:43:58;20.43;70.82
72380;SHT30;60354;47.798;12.472;2022-08-02T01:46:26;20.36;70.99
72380;SHT30;60354;47.798;12.472;2022-08-02T01:48:55;20.28;71.64
72380;SHT30;60354;47.798;12.472;2022-08-02T01:51:22;20.33;71.55
72380;SHT30;60354;47.798;12.472;2022-08-02T01:54:11;20.44;71.18
72380;SHT30;60354;47.798;12.472;2022-08-02T01:56:39;20.43;70.99
72380;SHT30;60354;47.798;12.472;2022-08-02T01:59:06;20.47;70.73
72380;SHT30;60354;47.798;12.472;2022-08-02T02:01:35;20.47;70.75
72380;SHT30;60354;47.798;12.472;2022-08-02T02:04:01;20.51;69.83
72380;SHT30;60354;47.798;12.472;2022-08-02T02:06:27;20.44;70.35
72380;SHT30;60354;47.798;12.472;2022-08-02T02:08:54;20.51;69.97
72380;SHT30;60354;47.798;12.472;2022-08-02T02:11:20;20.51;70.43
72380;SHT30;60354;47.798;12.472;2022-08-02T02:13:46;20.52;70.29
72380;SHT30;60354;47.798;12.472;2022-08-02T02:16:13;20.59;70.24
72380;SHT30;60354;47.798;12.472;2022-08-02T02:18:41;20.58;70.47
72380;SHT30;60354;47.798;12.472;2022-08-02T02:21:10;20.57;70.65
72380;SHT30;60354;47.798;12.472;2022-08-02T02:23:36;20.49;70.35
72380;SHT30;60354;47.798;12.472;2022-08-02T02:26:03;20.47;70.58
72380;SHT30;60354;47.798;12.472;2022-08-02T02:28:30;20.57;70.49
72380;SHT30;60354;47.798;12.472;2022-08-02T02:31:16;20.52;70.49
72380;SHT30;60354;47.798;12.472;2022-08-02T02:33:50;20.48;70.93
72380;SHT30;60354;47.798;12.472;2022-08-02T02:36:18;20.48;70.13
72380;SHT30;60354;47.798;12.472;2022-08-02T02:38:44;20.45;69.88
72380;SHT30;60354;47.798;12.472;2022-08-02T02:41:11;20.55;69.72
72380;SHT30;60354;47.798;12.472;2022-08-02T02:43:38;20.44;70.71
72380;SHT30;60354;47.798;12.472;2022-08-02T02:46:06;20.36;70.68
72380;SHT30;60354;47.798;12.472;2022-08-02T02:48:33;20.31;70.69
72380;SHT30;60354;47.798;12.472;2022-08-02T02:50:59;20.18;71.20
72380;SHT30;60354;47.798;12.472;2022-08-02T02:53:28;20.03;71.58
72380;SHT30;60354;47.798;12.472;2022-08-02T02:55:55;20.05;71.67
72380;SHT30;60354;47.798;12.472;2022-08-02T02:58:20;19.96;71.76
72380;SHT30;60354;47.798;12.472;2022-08-02T03:00:47;19.92;71.98
72380;SHT30;60354;47.798;12.472;2022-08-02T03:03:32;19.99;71.78
72380;SHT30;60354;47.798;12.472;2022-08-02T03:05:58;20.00;71.82
72380;SHT30;60354;47.798;12.472;2022-08-02T03:08:23;20.01;71.40
72380;SHT30;60354;47.798;12.472;2022-08-02T03:10:49;19.96;71.56
72380;SHT30;60354;47.798;12.472;2022-08-02T03:13:16;19.86;72.14
72380;SHT30;60354;47.798;12.472;2022-08-02T03:15:44;19.75;72.67
72380;SHT30;60354;47.798;12.472;2022-08-02T03:18:28;19.80;72.60
72380;SHT30;60354;47.798;12.472;2022-08-02T03:20:58;19.90;72.81
72380;SHT30;60354;47.798;12.472;2022-08-02T03:23:24;19.96;72.60
72380;SHT30;60354;47.798;12.472;2022-08-02T03:25:49;20.05;71.93
72380;SHT30;60354;47.798;12.472;2022-08-02T03:28:15;20.01;71.86
72380;SHT30;60354;47.798;12.472;2022-08-02T03:30:40;20.03;71.78
72380;SHT30;60354;47.798;12.472;2022-08-02T03:33:06;20.05;71.67
72380;SHT30;60354;47.798;12.472;2022-08-02T03:35:32;19.86;72.13
72380;SHT30;60354;47.798;12.472;2022-08-02T03:37:58;19.83;71.99
72380;SHT30;60354;47.798;12.472;2022-08-02T03:40:26;19.82;72.38
72380;SHT30;60354;47.798;12.472;2022-08-02T03:42:52;19.77;72.49
72380;SHT30;60354;47.798;12.472;2022-08-02T03:45:18;19.73;72.75
72380;SHT30;60354;47.798;12.472;2022-08-02T03:47:45;19.77;72.66
72380;SHT30;60354;47.798;12.472;2022-08-02T03:50:11;19.69;73.16
72380;SHT30;60354;47.798;12.472;2022-08-02T03:52:41;19.69;73.30
72380;SHT30;60354;47.798;12.472;2022-08-02T03:55:10;19.69;73.50
72380;SHT30;60354;47.798;12.472;2022-08-02T03:57:39;19.70;73.39
72380;SHT30;60354;47.798;12.472;2022-08-02T04:00:07;19.76;73.18
72380;SHT30;60354;47.798;12.472;2022-08-02T04:02:38;19.66;73.74
72380;SHT30;60354;47.798;12.472;2022-08-02T04:05:04;19.63;73.84
72380;SHT30;60354;47.798;12.472;2022-08-02T04:07:29;19.65;73.85
72380;SHT30;60354;47.798;12.472;2022-08-02T04:09:55;19.62;73.91
72380;SHT30;60354;47.798;12.472;2022-08-02T04:12:20;19.62;73.76
72380;SHT30;60354;47.798;12.472;2022-08-02T04:14:46;19.66;73.69
72380;SHT30;60354;47.798;12.472;2022-08-02T04:17:12;19.63;73.77
72380;SHT30;60354;47.798;12.472;2022-08-02T04:20:19;19.63;73.91
72380;SHT30;60354;47.798;12.472;2022-08-02T04:23:06;19.68;73.55
72380;SHT30;60354;47.798;12.472;2022-08-02T04:25:31;19.63;73.47
72380;SHT30;60354;47.798;12.472;2022-08-02T04:27:59;19.77;72.99
72380;SHT30;60354;47.798;12.472;2022-08-02T04:30:25;19.79;73.15
72380;SHT30;60354;47.798;12.472;2022-08-02T04:32:51;19.86;72.78
72380;SHT30;60354;47.798;12.472;2022-08-02T04:35:17;19.94;72.65
72380;SHT30;60354;47.798;12.472;2022-08-02T04:37:43;19.94;72.12
72380;SHT30;60354;47.798;12.472;2022-08-02T04:40:10;19.87;71.96
72380;SHT30;60354;47.798;12.472;2022-08-02T04:42:36;19.90;71.96
72380;SHT30;60354;47.798;12.472;2022-08-02T04:45:03;19.79;72.65
72380;SHT30;60354;47.798;12.472;2022-08-02T04:47:28;19.77;72.68
72380;SHT30;60354;47.798;12.472;2022-08-02T04:49:54;19.85;72.34
72380;SHT30;60354;47.798;12.472;2022-08-02T04:52:20;19.83;72.43
72380;SHT30;60354;47.798;12.472;2022-08-02T04:54:45;19.87;72.30
72380;SHT30;60354;47.798;12.472;2022-08-02T04:57:11;19.93;72.12
72380;SHT30;60354;47.798;12.472;2022-08-02T05:00:14;19.97;71.97
72380;SHT30;60354;47.798;12.472;2022-08-02T05:02:40;20.09;71.81
72380;SHT30;60354;47.798;12.472;2022-08-02T05:05:06;20.16;71.73
72380;SHT30;60354;47.798;12.472;2022-08-02T05:07:32;20.17;71.44
72380;SHT30;60354;47.798;12.472;2022-08-02T05:09:57;20.24;71.41
72380;SHT30;60354;47.798;12.472;2022-08-02T05:12:22;20.24;71.73
72380;SHT30;60354;47.798;12.472;2022-08-02T05:14:50;20.23;72.21
72380;SHT30;60354;47.798;12.472;2022-08-02T05:17:15;20.30;71.81
72380;SHT30;60354;47.798;12.472;2022-08-02T05:19:41;20.30;72.18
72380;SHT30;60354;47.798;12.472;2022-08-02T05:22:07;20.28;71.87
72380;SHT30;60354;47.798;12.472;2022-08-02T05:24:32;20.26;71.93
72380;SHT30;60354;47.798;12.472;2022-08-02T05:26:58;20.23;72.03
72380;SHT30;60354;47.798;12.472;2022-08-02T05:29:23;20.23;72.03
72380;SHT30;60354;47.798;12.472;2022-08-02T05:31:49;20.27;72.09
72380;SHT30;60354;47.798;12.472;2022-08-02T05:34:14;20.31;71.77
72380;SHT30;60354;47.798;12.472;2022-08-02T05:36:40;20.31;71.45
72380;SHT30;60354;47.798;12.472;2022-08-02T05:39:06;20.31;71.62
72380;SHT30;60354;47.798;12.472;2022-08-02T05:41:31;20.34;71.07
72380;SHT30;60354;47.798;12.472;2022-08-02T05:43:57;20.45;71.18
72380;SHT30;60354;47.798;12.472;2022-08-02T05:46:23;20.47;70.88
72380;SHT30;60354;47.798;12.472;2022-08-02T05:48:48;20.58;70.59
72380;SHT30;60354;47.798;12.472;2022-08-02T05:51:32;20.67;70.21
72380;SHT30;60354;47.798;12.472;2022-08-02T05:59:25;20.88;70.20
72380;SHT30;60354;47.798;12.472;2022-08-02T06:01:56;20.95;69.99
72380;SHT30;60354;47.798;12.472;2022-08-02T06:04:32;21.10;69.68
72380;SHT30;60354;47.798;12.472;2022-08-02T06:07:00;21.30;69.35
72380;SHT30;60354;47.798;12.472;2022-08-02T06:09:27;21.88;67.65
72380;SHT30;60354;47.798;12.472;2022-08-02T06:11:57;21.66;67.64
72380;SHT30;60354;47.798;12.472;2022-08-02T06:14:23;21.56;67.28
72380;SHT30;60354;47.798;12.472;2022-08-02T06:16:50;21.53;68.11
72380;SHT30;60354;47.798;12.472;2022-08-02T06:19:17;21.63;67.77
72380;SHT30;60354;47.798;12.472;2022-08-02T06:21:44;21.68;67.42
72380;SHT30;60354;47.798;12.472;2022-08-02T06:24:11;21.70;67.29
72380;SHT30;60354;47.798;12.472;2022-08-02T06:26:37;21.87;67.19
72380;SHT30;60354;47.798;12.472;2022-08-02T06:29:03;21.94;67.88
72380;SHT30;60354;47.798;12.472;2022-08-02T06:31:29;21.97;67.33
72380;SHT30;60354;47.798;12.472;2022-08-02T06:33:55;22.12;66.51
72380;SHT30;60354;47.798;12.472;2022-08-02T06:39:07;22.92;64.23
72380;SHT30;60354;47.798;12.472;2022-08-02T06:41:38;23.75;61.23
72380;SHT30;60354;47.798;12.472;2022-08-02T06:44:14;23.40;62.57
72380;SHT30;60354;47.798;12.472;2022-08-02T06:46:40;23.38;62.72
72380;SHT30;60354;47.798;12.472;2022-08-02T06:49:07;23.88;60.73
72380;SHT30;60354;47.798;12.472;2022-08-02T06:51:32;23.79;60.13
72380;SHT30;60354;47.798;12.472;2022-08-02T06:53:58;24.44;59.71
72380;SHT30;60354;47.798;12.472;2022-08-02T06:56:23;24.22;58.67
72380;SHT30;60354;47.798;12.472;2022-08-02T06:58:49;24.81;57.20
72380;SHT30;60354;47.798;12.472;2022-08-02T07:01:19;25.05;57.36
72380;SHT30;60354;47.798;12.472;2022-08-02T07:03:44;25.24;56.35
72380;SHT30;60354;47.798;12.472;2022-08-02T07:06:10;25.21;56.57
72380;SHT30;60354;47.798;12.472;2022-08-02T07:08:39;25.49;55.95
72380;SHT30;60354;47.798;12.472;2022-08-02T07:11:05;25.58;54.94
72380;SHT30;60354;47.798;12.472;2022-08-02T07:13:31;25.86;54.72
72380;SHT30;60354;47.798;12.472;2022-08-02T07:15:56;25.70;53.59
72380;SHT30;60354;47.798;12.472;2022-08-02T07:18:23;26.14;53.72
72380;SHT30;60354;47.798;12.472;2022-08-02T07:20:48;26.07;52.41
72380;SHT30;60354;47.798;12.472;2022-08-02T07:23:14;26.34;52.32
72380;SHT30;60354;47.798;12.472;2022-08-02T07:25:40;26.55;51.45
72380;SHT30;60354;47.798;12.472;2022-08-02T07:28:08;26.71;51.19
72380;SHT30;60354;47.798;12.472;2022-08-02T07:30:34;26.67;50.66
72380;SHT30;60354;47.798;12.472;2022-08-02T07:33:00;26.92;49.95
72380;SHT30;60354;47.798;12.472;2022-08-02T07:35:26;26.78;48.84
72380;SHT30;60354;47.798;12.472;2022-08-02T07:37:51;26.74;49.27
72380;SHT30;60354;47.798;12.472;2022-08-02T07:40:18;26.67;48.20
72380;SHT30;60354;47.798;12.472;2022-08-02T07:42:44;26.47;48.68
72380;SHT30;60354;47.798;12.472;2022-08-02T07:45:11;26.94;48.28
72380;SHT30;60354;47.798;12.472;2022-08-02T07:47:38;26.94;47.57
72380;SHT30;60354;47.798;12.472;2022-08-02T07:50:05;27.30;48.47
72380;SHT30;60354;47.798;12.472;2022-08-02T07:52:31;27.33;47.47
72380;SHT30;60354;47.798;12.472;2022-08-02T07:54:57;27.73;46.47
72380;SHT30;60354;47.798;12.472;2022-08-02T07:57:22;27.73;46.95
72380;SHT30;60354;47.798;12.472;2022-08-02T07:59:49;27.54;49.19
72380;SHT30;60354;47.798;12.472;2022-08-02T08:02:16;27.78;45.46
72380;SHT30;60354;47.798;12.472;2022-08-02T08:04:41;28.12;44.65
72380;SHT30;60354;47.798;12.472;2022-08-02T08:07:07;27.64;45.10
72380;SHT30;60354;47.798;12.472;2022-08-02T08:09:35;28.01;45.34
72380;SHT30;60354;47.798;12.472;2022-08-02T08:12:07;27.06;46.29
72380;SHT30;60354;47.798;12.472;2022-08-02T08:14:32;27.22;45.87
72380;SHT30;60354;47.798;12.472;2022-08-02T08:16:58;26.75;47.22
72380;SHT30;60354;47.798;12.472;2022-08-02T08:19:24;26.85;47.69
72380;SHT30;60354;47.798;12.472;2022-08-02T08:21:50;27.50;47.05
72380;SHT30;60354;47.798;12.472;2022-08-02T08:24:15;27.88;47.32
72380;SHT30;60354;47.798;12.472;2022-08-02T08:26:41;27.33;48.77
72380;SHT30;60354;47.798;12.472;2022-08-02T08:29:06;26.89;50.01
72380;SHT30;60354;47.798;12.472;2022-08-02T08:31:35;26.96;50.30
72380;SHT30;60354;47.798;12.472;2022-08-02T08:34:01;26.68;50.72
72380;SHT30;60354;47.798;12.472;2022-08-02T08:36:26;26.27;51.42
72380;SHT30;60354;47.798;12.472;2022-08-02T08:38:52;25.85;52.53
72380;SHT30;60354;47.798;12.472;2022-08-02T08:41:18;25.93;52.89
72380;SHT30;60354;47.798;12.472;2022-08-02T08:43:45;25.72;53.60
72380;SHT30;60354;47.798;12.472;2022-08-02T08:46:23;25.63;54.28
72380;SHT30;60354;47.798;12.472;2022-08-02T08:48:52;25.58;54.65
72380;SHT30;60354;47.798;12.472;2022-08-02T08:51:20;25.86;52.69
72380;SHT30;60354;47.798;12.472;2022-08-02T08:53:48;26.10;52.47
72380;SHT30;60354;47.798;12.472;2022-08-02T08:56:14;26.41;52.65
72380;SHT30;60354;47.798;12.472;2022-08-02T08:58:41;26.78;51.03
72380;SHT30;60354;47.798;12.472;2022-08-02T09:01:08;26.33;50.27
72380;SHT30;60354;47.798;12.472;2022-08-02T09:03:33;26.37;51.10
72380;SHT30;60354;47.798;12.472;2022-08-02T09:05:59;26.18;51.20
72380;SHT30;60354;47.798;12.472;2022-08-02T09:08:25;26.51;50.47
72380;SHT30;60354;47.798;12.472;2022-08-02T09:10:51;26.84;49.23
72380;SHT30;60354;47.798;12.472;2022-08-02T09:13:17;26.85;49.33
72380;SHT30;60354;47.798;12.472;2022-08-02T09:18:28;27.16;48.97
72380;SHT30;60354;47.798;12.472;2022-08-02T09:20:57;27.66;47.34
72380;SHT30;60354;47.798;12.472;2022-08-02T09:23:23;27.47;47.48
72380;SHT30;60354;47.798;12.472;2022-08-02T09:25:57;27.40;49.68
72380;SHT30;60354;47.798;12.472;2022-08-02T09:28:27;27.26;48.02
72380;SHT30;60354;47.798;12.472;2022-08-02T09:30:56;27.43;48.19
72380;SHT30;60354;47.798;12.472;2022-08-02T09:33:26;27.20;48.40
72380;SHT30;60354;47.798;12.472;2022-08-02T09:38:27;27.42;49.09
72380;SHT30;60354;47.798;12.472;2022-08-02T09:40:52;27.32;49.06
72380;SHT30;60354;47.798;12.472;2022-08-02T09:43:18;27.43;47.87
72380;SHT30;60354;47.798;12.472;2022-08-02T09:45:45;27.83;47.52
72380;SHT30;60354;47.798;12.472;2022-08-02T09:48:11;27.66;47.14
72380;SHT30;60354;47.798;12.472;2022-08-02T09:50:39;27.76;46.96
72380;SHT30;60354;47.798;12.472;2022-08-02T09:53:10;28.44;46.35
72380;SHT30;60354;47.798;12.472;2022-08-02T09:55:37;28.79;46.01
72380;SHT30;60354;47.798;12.472;2022-08-02T09:58:16;29.16;44.90
72380;SHT30;60354;47.798;12.472;2022-08-02T10:00:56;29.28;43.37
72380;SHT30;60354;47.798;12.472;2022-08-02T10:03:23;29.23;42.29
72380;SHT30;60354;47.798;12.472;2022-08-02T10:05:54;29.00;42.60
72380;SHT30;60354;47.798;12.472;2022-08-02T10:08:20;29.08;43.38
72380;SHT30;60354;47.798;12.472;2022-08-02T10:10:46;28.82;44.22
72380;SHT30;60354;47.798;12.472;2022-08-02T10:13:12;28.92;43.96
72380;SHT30;60354;47.798;12.472;2022-08-02T10:15:38;28.90;43.98
72380;SHT30;60354;47.798;12.472;2022-08-02T10:18:05;29.26;43.75
72380;SHT30;60354;47.798;12.472;2022-08-02T10:20:38;29.51;41.71
72380;SHT30;60354;47.798;12.472;2022-08-02T10:23:06;29.78;41.92
72380;SHT30;60354;47.798;12.472;2022-08-02T10:25:35;29.90;41.89
72380;SHT30;60354;47.798;12.472;2022-08-02T10:28:02;29.53;43.33
72380;SHT30;60354;47.798;12.472;2022-08-02T10:30:28;29.11;43.81
72380;SHT30;60354;47.798;12.472;2022-08-02T10:32:56;28.60;43.99
72380;SHT30;60354;47.798;12.472;2022-08-02T10:35:23;28.36;44.80
72380;SHT30;60354;47.798;12.472;2022-08-02T10:37:53;28.11;44.68
72380;SHT30;60354;47.798;12.472;2022-08-02T10:40:19;28.34;45.91
72380;SHT30;60354;47.798;12.472;2022-08-02T10:42:49;28.44;47.72
72380;SHT30;60354;47.798;12.472;2022-08-02T10:45:17;28.21;47.25
72380;SHT30;60354;47.798;12.472;2022-08-02T10:48:11;27.74;48.65
72380;SHT30;60354;47.798;12.472;2022-08-02T10:55:49;28.29;47.87
72380;SHT30;60354;47.798;12.472;2022-08-02T10:58:19;28.24;48.54
72380;SHT30;60354;47.798;12.472;2022-08-02T11:00:46;28.19;48.65
72380;SHT30;60354;47.798;12.472;2022-08-02T11:03:35;27.95;47.70
72380;SHT30;60354;47.798;12.472;2022-08-02T11:06:10;28.24;47.83
72380;SHT30;60354;47.798;12.472;2022-08-02T11:08:37;28.25;47.05
72380;SHT30;60354;47.798;12.472;2022-08-02T11:19:19;27.47;46.69
72380;SHT30;60354;47.798;12.472;2022-08-02T11:22:14;27.57;47.99
72380;SHT30;60354;47.798;12.472;2022-08-02T11:24:42;27.54;47.21
72380;SHT30;60354;47.798;12.472;2022-08-02T11:27:16;27.49;46.89
72380;SHT30;60354;47.798;12.472;2022-08-02T11:29:44;27.76;46.56
72380;SHT30;60354;47.798;12.472;2022-08-02T11:32:19;27.66;46.21
72380;SHT30;60354;47.798;12.472;2022-08-02T11:34:48;27.94;46.99
72380;SHT30;60354;47.798;12.472;2022-08-02T11:37:27;28.15;46.69
72380;SHT30;60354;47.798;12.472;2022-08-02T11:39:52;27.77;46.61
72380;SHT30;60354;47.798;12.472;2022-08-02T11:42:18;27.90;46.81
72380;SHT30;60354;47.798;12.472;2022-08-02T11:44:43;27.95;45.88
72380;SHT30;60354;47.798;12.472;2022-08-02T11:47:10;27.13;46.09
72380;SHT30;60354;47.798;12.472;2022-08-02T11:49:36;27.29;46.64
72380;SHT30;60354;47.798;12.472;2022-08-02T11:52:07;27.35;46.72
72380;SHT30;60354;47.798;12.472;2022-08-02T11:54:36;27.66;47.27
72380;SHT30;60354;47.798;12.472;2022-08-02T11:57:18;27.61;46.43
72380;SHT30;60354;47.798;12.472;2022-08-02T11:59:51;27.83;45.46
72380;SHT30;60354;47.798;12.472;2022-08-02T12:02:19;27.57;46.74
72380;SHT30;60354;47.798;12.472;2022-08-02T12:04:51;27.16;47.19
72380;SHT30;60354;47.798;12.472;2022-08-02T12:07:17;26.86;47.65
72380;SHT30;60354;47.798;12.472;2022-08-02T12:09:42;26.76;47.05
72380;SHT30;60354;47.798;12.472;2022-08-02T12:12:08;27.03;46.84
72380;SHT30;60354;47.798;12.472;2022-08-02T12:14:41;27.16;46.82
72380;SHT30;60354;47.798;12.472;2022-08-02T12:17:07;27.60;45.81
72380;SHT30;60354;47.798;12.472;2022-08-02T12:19:51;27.56;45.32
72380;SHT30;60354;47.798;12.472;2022-08-02T12:22:19;27.57;44.39
72380;SHT30;60354;47.798;12.472;2022-08-02T12:24:52;27.74;45.07
72380;SHT30;60354;47.798;12.472;2022-08-02T12:27:31;27.98;45.16
72380;SHT30;60354;47.798;12.472;2022-08-02T12:30:11;28.12;44.82
72380;SHT30;60354;47.798;12.472;2022-08-02T12:32:37;28.14;43.80
72380;SHT30;60354;47.798;12.472;2022-08-02T12:35:15;27.85;44.36
72380;SHT30;60354;47.798;12.472;2022-08-02T12:37:44;27.85;44.59
72380;SHT30;60354;47.798;12.472;2022-08-02T12:40:30;27.84;43.94
72380;SHT30;60354;47.798;12.472;2022-08-02T12:43:06;28.00;44.00
72380;SHT30;60354;47.798;12.472;2022-08-02T12:46:04;27.83;43.66
72380;SHT30;60354;47.798;12.472;2022-08-02T12:48:39;28.24;44.72
72380;SHT30;60354;47.798;12.472;2022-08-02T12:53:50;28.09;43.24
72380;SHT30;60354;47.798;12.472;2022-08-02T12:56:29;27.88;43.81
72380;SHT30;60354;47.798;12.472;2022-08-02T12:58:55;28.09;44.01
72380;SHT30;60354;47.798;12.472;2022-08-02T13:01:24;28.31;42.46
72380;SHT30;60354;47.798;12.472;2022-08-02T13:03:50;28.28;43.34
72380;SHT30;60354;47.798;12.472;2022-08-02T13:06:20;28.09;44.83
72380;SHT30;60354;47.798;12.472;2022-08-02T13:08:46;28.17;44.03
72380;SHT30;60354;47.798;12.472;2022-08-02T13:11:16;28.07;44.31
72380;SHT30;60354;47.798;12.472;2022-08-02T13:13:41;28.15;44.26
72380;SHT30;60354;47.798;12.472;2022-08-02T13:16:08;27.84;44.32
72380;SHT30;60354;47.798;12.472;2022-08-02T13:18:34;28.12;45.22
72380;SHT30;60354;47.798;12.472;2022-08-02T13:21:00;28.32;44.72
72380;SHT30;60354;47.798;12.472;2022-08-02T13:23:26;28.00;44.37
72380;SHT30;60354;47.798;12.472;2022-08-02T13:25:51;28.01;44.90
72380;SHT30;60354;47.798;12.472;2022-08-02T13:28:19;27.94;45.33
72380;SHT30;60354;47.798;12.472;2022-08-02T13:30:46;28.11;45.48
72380;SHT30;60354;47.798;12.472;2022-08-02T13:33:12;28.07;46.13
72380;SHT30;60354;47.798;12.472;2022-08-02T13:35:38;28.07;45.58
72380;SHT30;60354;47.798;12.472;2022-08-02T13:38:04;27.98;45.12
72380;SHT30;60354;47.798;12.472;2022-08-02T13:40:31;28.00;44.21
72380;SHT30;60354;47.798;12.472;2022-08-02T13:42:57;28.14;44.56
72380;SHT30;60354;47.798;12.472;2022-08-02T13:45:22;27.74;44.57
72380;SHT30;60354;47.798;12.472;2022-08-02T13:47:48;28.07;45.13
72380;SHT30;60354;47.798;12.472;2022-08-02T13:50:14;28.04;46.16
72380;SHT30;60354;47.798;12.472;2022-08-02T13:52:40;27.93;45.55
72380;SHT30;60354;47.798;12.472;2022-08-02T13:55:06;27.85;45.10
72380;SHT30;60354;47.798;12.472;2022-08-02T13:57:31;27.91;45.79
72380;SHT30;60354;47.798;12.472;2022-08-02T13:59:57;27.95;43.92
72380;SHT30;60354;47.798;12.472;2022-08-02T14:02:22;27.94;44.48
72380;SHT30;60354;47.798;12.472;2022-08-02T14:04:48;28.01;44.45
72380;SHT30;60354;47.798;12.472;2022-08-02T14:07:13;28.14;44.51
72380;SHT30;60354;47.798;12.472;2022-08-02T14:09:40;27.85;44.14
72380;SHT30;60354;47.798;12.472;2022-08-02T14:12:06;27.50;45.27
72380;SHT30;60354;47.798;12.472;2022-08-02T14:14:33;27.74;45.77
72380;SHT30;60354;47.798;12.472;2022-08-02T14:16:59;27.94;45.79
72380;SHT30;60354;47.798;12.472;2022-08-02T14:19:24;27.74;44.14
72380;SHT30;60354;47.798;12.472;2022-08-02T14:21:50;27.73;43.97
72380;SHT30;60354;47.798;12.472;2022-08-02T14:24:18;28.04;44.52
72380;SHT30;60354;47.798;12.472;2022-08-02T14:26:44;28.19;43.62
72380;SHT30;60354;47.798;12.472;2022-08-02T14:29:10;28.22;44.08
72380;SHT30;60354;47.798;12.472;2022-08-02T14:31:36;28.22;44.63
72380;SHT30;60354;47.798;12.472;2022-08-02T14:34:01;28.42;44.35
72380;SHT30;60354;47.798;12.472;2022-08-02T14:36:27;28.45;43.69
72380;SHT30;60354;47.798;12.472;2022-08-02T14:38:53;28.49;42.60
72380;SHT30;60354;47.798;12.472;2022-08-02T14:41:19;28.25;43.41
72380;SHT30;60354;47.798;12.472;2022-08-02T14:43:45;28.09;44.40
72380;SHT30;60354;47.798;12.472;2022-08-02T14:46:32;27.93;43.93
72380;SHT30;60354;47.798;12.472;2022-08-02T14:48:58;27.88;44.88
72380;SHT30;60354;47.798;12.472;2022-08-02T14:51:30;27.87;44.53
72380;SHT30;60354;47.798;12.472;2022-08-02T14:53:57;28.07;45.16
72380;SHT30;60354;47.798;12.472;2022-08-02T14:56:23;28.04;44.16
72380;SHT30;60354;47.798;12.472;2022-08-02T14:58:49;27.98;43.61
72380;SHT30;60354;47.798;12.472;2022-08-02T15:01:14;28.02;44.26
72380;SHT30;60354;47.798;12.472;2022-08-02T15:03:39;27.74;43.61
72380;SHT30;60354;47.798;12.472;2022-08-02T15:06:05;27.64;44.66
72380;SHT30;60354;47.798;12.472;2022-08-02T15:08:31;27.68;44.36
72380;SHT30;60354;47.798;12.472;2022-08-02T15:10:56;27.83;44.66
72380;SHT30;60354;47.798;12.472;2022-08-02T15:13:22;27.70;44.15
72380;SHT30;60354;47.798;12.472;2022-08-02T15:15:47;27.81;44.45
72380;SHT30;60354;47.798;12.472;2022-08-02T15:18:13;27.83;45.18
72380;SHT30;60354;47.798;12.472;2022-08-02T15:20:39;27.77;43.98
72380;SHT30;60354;47.798;12.472;2022-08-02T15:23:04;27.90;44.64
72380;SHT30;60354;47.798;12.472;2022-08-02T15:25:30;27.88;43.95
72380;SHT30;60354;47.798;12.472;2022-08-02T15:27:55;27.83;44.29
72380;SHT30;60354;47.798;12.472;2022-08-02T15:30:21;27.60;44.99
72380;SHT30;60354;47.798;12.472;2022-08-02T15:32:46;27.57;44.66
72380;SHT30;60354;47.798;12.472;2022-08-02T15:35:13;27.42;45.30
72380;SHT30;60354;47.798;12.472;2022-08-02T15:37:38;27.51;44.96
72380;SHT30;60354;47.798;12.472;2022-08-02T15:40:04;27.46;45.75
72380;SHT30;60354;47.798;12.472;2022-08-02T15:42:30;27.58;45.98
72380;SHT30;60354;47.798;12.472;2022-08-02T15:44:55;27.68;44.81
72380;SHT30;60354;47.798;12.472;2022-08-02T15:47:21;27.51;44.67
72380;SHT30;60354;47.798;12.472;2022-08-02T15:49:47;27.54;44.05
72380;SHT30;60354;47.798;12.472;2022-08-02T15:52:13;27.56;44.00
72380;SHT30;60354;47.798;12.472;2022-08-02T15:54:39;27.61;44.86
72380;SHT30;60354;47.798;12.472;2022-08-02T15:57:05;27.50;44.64
72380;SHT30;60354;47.798;12.472;2022-08-02T15:59:30;27.43;44.77
72380;SHT30;60354;47.798;12.472;2022-08-02T16:01:56;27.47;44.46
72380;SHT30;60354;47.798;12.472;2022-08-02T16:04:21;27.27;45.65